< < Back
Terminal Aerodrome Forecast


Current Version              Previous Versions:   1  2  3  4  5  6  7  8  9  

Terminal Aerodrome Forecast

867
FTUS42 KCAE 292328
TAFAGS
TAF
KAGS 292328Z 3000/3024 VRB04KT P6SM SCT250
     FM301000 07002KT 4SM BR SCT005 BKN010
     FM301400 11005KT P6SM SCT050=



Latest METAR

867
SAUS70 KWBC 300400 RRH
MTRAGS
METAR KAGS 300353Z AUTO 14005KT 10SM CLR 22/18 A3016 RMK AO2 SLP211
T02170183


USA.gov is the U.S. government's official web portal to all federal, state and local government web resources and services.